Hales Location, New Hampshire
Current Conditions -  °F | °C
As of 11:05 AM on Tuesday 21 Oct 2014 (Local Time) from KIZG Reporting Station
Overcast Overcast  
Wind Chill: 44°   Ceiling: 2300
Heat Index: 46°   Visibility: 10mi
Dew Point: 41°   Wind: 5mph
Humidity: 83%   Direction: NA
Pressure: 30.06"   Gusts: NA
Location:  44.0406°N, 71.0915°W
Report Text: KIZG 211505Z AUTO VRB04KT 10SM BKN023 BKN030 OVC045 08/05 A3006 RMK AO2 T00780050
Loading
Personal Weather Stations






























Interactive Weather Map
Tropical Storm Tracking
New forecast layout! Learn more

10-Day Weather Forecast

Advertisements
Track Severe Weather on mobile